createdAt,value
2023-05-01T00:00:55.078Z,100984.64
2023-05-01T00:06:02.137Z,100983.86
2023-05-01T00:11:06.245Z,100987.23
2023-05-01T00:16:10.283Z,100982.42
2023-05-01T00:21:13.335Z,100983.75
2023-05-01T00:26:16.340Z,100983.31
2023-05-01T00:31:20.070Z,100979.81
2023-05-01T00:36:23.162Z,100976.03
2023-05-01T00:41:26.479Z,100977.85
2023-05-01T00:46:30.641Z,100977.44
2023-05-01T00:51:34.322Z,100975.52
2023-05-01T00:56:37.639Z,100978.31
2023-05-01T01:01:44.537Z,100975.64
2023-05-01T01:06:53.162Z,100973.92
2023-05-01T01:12:28.731Z,100973.06
2023-05-01T01:17:46.999Z,100973.58
2023-05-01T01:22:53.397Z,100971.67
2023-05-01T01:28:05.700Z,100971.30
2023-05-01T01:33:25.590Z,100972.17
2023-05-01T01:38:48.872Z,100974.31
2023-05-01T01:44:10.014Z,100971.85
2023-05-01T01:49:21.048Z,100967.98
2023-05-01T01:54:29.726Z,100963.68
2023-05-01T01:59:34.583Z,100957.36
2023-05-01T02:04:39.619Z,100951.67
2023-05-01T02:09:44.779Z,100947.21
2023-05-01T02:14:48.604Z,100948.21
2023-05-01T02:19:53.557Z,100945.84
2023-05-01T02:24:57.578Z,100944.77
2023-05-01T02:30:00.584Z,100944.54
2023-05-01T02:35:04.099Z,100938.27
2023-05-01T02:40:07.925Z,100935.88
2023-05-01T02:45:18.207Z,100935.67
2023-05-01T02:50:22.501Z,100939.06
2023-05-01T02:55:26.660Z,100939.06
2023-05-01T03:00:30.272Z,100937.34
2023-05-01T03:05:33.797Z,100934.93
2023-05-01T03:10:36.999Z,100931.17
2023-05-01T03:15:40.006Z,100932.48
2023-05-01T03:20:51.715Z,100931.40
2023-05-01T03:25:55.014Z,100932.83
2023-05-01T03:30:58.123Z,100937.72
2023-05-01T03:36:05.758Z,100946.73
2023-05-01T03:41:09.041Z,100949.34
2023-05-01T03:46:12.109Z,100951.00
2023-05-01T03:51:17.512Z,100952.98
2023-05-01T03:56:20.612Z,100952.03
2023-05-01T04:01:23.614Z,100953.36
2023-05-01T04:06:27.498Z,100947.16
2023-05-01T04:11:30.863Z,100942.61
2023-05-01T04:16:34.127Z,100946.36
2023-05-01T04:21:37.575Z,100942.07
2023-05-01T04:26:40.784Z,100944.59
2023-05-01T04:31:43.935Z,100936.27
2023-05-01T04:36:47.294Z,100935.65
2023-05-01T04:41:50.813Z,100935.54
2023-05-01T04:46:54.072Z,100940.73
2023-05-01T04:51:57.326Z,100949.06
2023-05-01T04:57:01.665Z,100947.58
2023-05-01T05:02:05.022Z,100948.23
2023-05-01T05:07:09.870Z,100953.36
2023-05-01T05:12:14.872Z,100949.95
2023-05-01T05:17:18.183Z,100947.09
2023-05-01T05:22:21.594Z,100945.14
2023-05-01T05:27:24.494Z,100943.98
2023-05-01T05:32:27.652Z,100942.59
2023-05-01T05:37:30.720Z,100941.55
2023-05-01T05:42:34.435Z,100943.07
2023-05-01T05:47:37.783Z,100943.52
2023-05-01T05:52:41.009Z,100939.98
2023-05-01T05:57:44.160Z,100945.02
2023-05-01T06:02:47.361Z,100954.59
2023-05-01T06:07:51.816Z,100957.92
2023-05-01T06:12:59.485Z,100959.44
2023-05-01T06:18:17.959Z,100960.90
2023-05-01T06:23:23.108Z,100960.70
2023-05-01T06:28:26.305Z,100964.85
2023-05-01T06:33:29.552Z,100966.48
2023-05-01T06:38:35.524Z,100966.29
2023-05-01T06:43:38.831Z,100964.53
2023-05-01T06:48:41.833Z,100964.91
2023-05-01T06:53:45.559Z,100968.29
2023-05-01T06:58:48.974Z,100962.38
2023-05-01T07:03:52.813Z,100961.63
2023-05-01T07:08:56.008Z,100961.02
2023-05-01T07:13:59.529Z,100954.87
2023-05-01T07:19:02.521Z,100949.66
2023-05-01T07:24:06.129Z,100944.85
2023-05-01T07:29:09.244Z,100942.38
2023-05-01T07:34:12.354Z,100942.04
2023-05-01T07:39:15.762Z,100942.87
2023-05-01T07:44:19.173Z,100942.34
2023-05-01T07:49:22.387Z,100936.86
2023-05-01T07:54:25.492Z,100930.60
2023-05-01T07:59:29.104Z,100931.66
2023-05-01T08:04:32.662Z,100927.33
2023-05-01T08:09:36.288Z,100920.41
2023-05-01T08:14:39.453Z,100918.08
2023-05-01T08:19:42.553Z,100924.36
2023-05-01T08:24:46.681Z,100925.55
2023-05-01T08:29:50.112Z,100923.30
2023-05-01T08:34:54.031Z,100915.51
2023-05-01T08:39:58.915Z,100918.14
2023-05-01T08:45:05.234Z,100915.12
2023-05-01T08:50:14.444Z,100915.86
2023-05-01T08:55:19.752Z,100915.44
2023-05-01T09:00:23.443Z,100910.64
2023-05-01T09:05:27.395Z,100911.33
2023-05-01T09:10:32.956Z,100911.08
2023-05-01T09:15:36.795Z,100904.67
2023-05-01T09:20:41.113Z,100903.38
2023-05-01T09:25:46.388Z,100900.39
2023-05-01T09:30:50.195Z,100893.86
2023-05-01T09:35:54.746Z,100892.27
2023-05-01T09:41:04.114Z,100888.24
2023-05-01T09:46:09.877Z,100888.69
2023-05-01T09:51:23.412Z,100887.23
2023-05-01T09:56:27.043Z,100882.62
2023-05-01T10:01:40.120Z,100873.80
2023-05-01T10:06:43.476Z,100873.26
2023-05-01T10:11:49.781Z,100858.89
2023-05-01T10:16:53.679Z,100849.67
2023-05-01T10:21:56.939Z,100846.70
2023-05-01T10:27:01.542Z,100836.58
2023-05-01T10:32:05.145Z,100828.16
2023-05-01T10:37:28.937Z,100815.69
2023-05-01T10:42:32.462Z,100809.45
2023-05-01T10:47:38.414Z,100802.09
2023-05-01T10:53:02.253Z,100800.52
2023-05-01T10:58:05.852Z,100800.02
2023-05-01T11:03:23.398Z,100789.20
2023-05-01T11:08:33.365Z,100786.27
2023-05-01T11:13:55.927Z,100778.73
2023-05-01T11:18:59.216Z,100768.73
2023-05-01T11:24:06.444Z,100767.20
2023-05-01T11:29:10.967Z,100765.42
2023-05-01T11:34:14.082Z,100758.23
2023-05-01T11:39:18.284Z,100751.91
2023-05-01T11:44:22.026Z,100745.77
2023-05-01T11:49:29.023Z,100735.41
2023-05-01T11:54:47.485Z,100725.57
2023-05-01T11:59:50.594Z,100724.33
2023-05-01T12:04:54.343Z,100711.30
2023-05-01T12:09:57.657Z,100705.20
2023-05-01T12:15:00.989Z,100709.56
2023-05-01T12:20:05.764Z,100705.29
2023-05-01T12:25:09.869Z,100696.21
2023-05-01T12:30:13.241Z,100690.13
2023-05-01T12:35:16.948Z,100683.11
2023-05-01T12:40:20.144Z,100673.86
2023-05-01T12:45:23.657Z,100670.27
2023-05-01T12:50:26.969Z,100661.79
2023-05-01T12:55:30.488Z,100659.84
2023-05-01T13:00:42.197Z,100651.83
2023-05-01T13:05:58.593Z,100640.55
2023-05-01T13:11:04.172Z,100630.66
2023-05-01T13:16:14.223Z,100623.08
2023-05-01T13:21:19.701Z,100617.44
2023-05-01T13:26:33.773Z,100611.89
2023-05-01T13:31:37.030Z,100608.98
2023-05-01T13:36:40.591Z,100604.95
2023-05-01T13:41:43.588Z,100603.66
2023-05-01T13:46:47.415Z,100595.84
2023-05-01T13:51:51.356Z,100592.03
2023-05-01T13:56:54.848Z,100584.03
2023-05-01T14:01:57.791Z,100577.11
2023-05-01T14:07:01.686Z,100567.95
2023-05-01T14:12:05.095Z,100561.26
2023-05-01T14:17:08.341Z,100554.88
2023-05-01T14:22:12.229Z,100553.23
2023-05-01T14:27:15.500Z,100547.03
2023-05-01T14:32:18.634Z,100539.61
2023-05-01T14:37:23.082Z,100530.27
2023-05-01T14:42:26.591Z,100526.73
2023-05-01T14:47:29.631Z,100528.00
2023-05-01T14:52:33.014Z,100521.82
2023-05-01T14:57:36.437Z,100516.25
2023-05-01T15:02:39.657Z,100500.98
2023-05-01T15:07:42.947Z,100486.77
2023-05-01T15:12:46.727Z,100487.33
2023-05-01T15:17:50.588Z,100487.58
2023-05-01T15:22:54.209Z,100483.63
2023-05-01T15:27:57.830Z,100474.70
2023-05-01T15:33:01.862Z,100470.11
2023-05-01T15:38:05.633Z,100465.61
2023-05-01T15:43:08.789Z,100466.11
2023-05-01T15:48:12.414Z,100461.52
2023-05-01T15:53:17.353Z,100458.95
2023-05-01T15:58:23.216Z,100456.75
2023-05-01T16:03:27.585Z,100449.90
2023-05-01T16:08:32.495Z,100438.98
2023-05-01T16:13:42.165Z,100432.70
2023-05-01T16:18:45.809Z,100427.98
2023-05-01T16:23:49.284Z,100425.00
2023-05-01T16:28:53.532Z,100421.56
2023-05-01T16:33:57.066Z,100417.27
2023-05-01T16:39:01.479Z,100413.39
2023-05-01T16:44:04.987Z,100411.42
2023-05-01T16:49:10.653Z,100410.16
2023-05-01T16:54:13.767Z,100406.80
2023-05-01T16:59:17.288Z,100404.35
2023-05-01T17:04:20.658Z,100401.27
2023-05-01T17:09:24.403Z,100397.67
2023-05-01T17:14:29.143Z,100394.14
2023-05-01T17:19:32.918Z,100396.88
2023-05-01T17:24:36.908Z,100400.33
2023-05-01T17:29:41.847Z,100398.67
2023-05-01T17:34:45.489Z,100399.20
2023-05-01T17:39:49.511Z,100396.95
2023-05-01T17:44:53.319Z,100396.08
2023-05-01T17:49:56.561Z,100391.65
2023-05-01T17:55:00.665Z,100384.58
2023-05-01T18:00:05.609Z,100381.01
2023-05-01T18:05:11.934Z,100379.66
2023-05-01T18:10:16.389Z,100379.27
2023-05-01T18:15:22.745Z,100372.61
2023-05-01T18:20:26.530Z,100369.27
2023-05-01T18:25:29.935Z,100367.33
2023-05-01T18:30:33.353Z,100370.13
2023-05-01T18:35:40.081Z,100372.36
2023-05-01T18:40:43.903Z,100375.50
2023-05-01T18:45:47.079Z,100375.34
2023-05-01T18:51:06.795Z,100371.58
2023-05-01T18:56:11.507Z,100366.80
2023-05-01T19:01:24.071Z,100367.66
2023-05-01T19:06:38.038Z,100366.11
2023-05-01T19:11:42.523Z,100362.92
2023-05-01T19:16:46.109Z,100362.39
2023-05-01T19:21:51.609Z,100362.05
2023-05-01T19:26:56.851Z,100360.96
2023-05-01T19:32:02.284Z,100353.86
2023-05-01T19:37:07.991Z,100352.73
2023-05-01T19:42:13.612Z,100350.23
2023-05-01T19:47:20.453Z,100348.48
2023-05-01T19:52:34.140Z,100354.39
2023-05-01T19:57:38.335Z,100350.36
2023-05-01T20:02:42.666Z,100345.11
2023-05-01T20:07:48.849Z,100338.27
2023-05-01T20:12:53.177Z,100335.90
2023-05-01T20:17:56.618Z,100331.23
2023-05-01T20:23:14.042Z,100321.27
2023-05-01T20:28:18.172Z,100312.73
2023-05-01T20:33:21.296Z,100306.11
2023-05-01T20:38:24.696Z,100306.09
2023-05-01T20:43:28.309Z,100296.21
2023-05-01T20:48:33.109Z,100296.54
2023-05-01T20:53:36.766Z,100295.33
2023-05-01T20:58:39.973Z,100294.39
2023-05-01T21:03:42.996Z,100291.89
2023-05-01T21:08:46.697Z,100292.19
2023-05-01T21:13:51.847Z,100292.95
2023-05-01T21:18:55.158Z,100294.52
2023-05-01T21:23:58.265Z,100299.16
2023-05-01T21:29:01.884Z,100297.55
2023-05-01T21:34:05.198Z,100285.30
2023-05-01T21:39:08.610Z,100284.46
2023-05-01T21:44:11.817Z,100282.46
2023-05-01T21:49:18.764Z,100287.73
2023-05-01T21:54:21.845Z,100287.09
2023-05-01T21:59:26.353Z,100286.23
2023-05-01T22:04:29.459Z,100284.98
2023-05-01T22:09:33.218Z,100282.15
2023-05-01T22:14:47.135Z,100278.26
2023-05-01T22:19:51.894Z,100269.92
2023-05-01T22:24:54.892Z,100264.54
2023-05-01T22:29:58.574Z,100258.95
2023-05-01T22:35:01.818Z,100256.64
2023-05-01T22:40:06.077Z,100261.11
2023-05-01T22:45:10.529Z,100255.92
2023-05-01T22:50:13.605Z,100250.80
2023-05-01T22:55:16.807Z,100250.58
2023-05-01T23:00:20.010Z,100249.98
2023-05-01T23:05:23.014Z,100248.54
2023-05-01T23:10:27.038Z,100245.48
2023-05-01T23:15:30.051Z,100239.41
2023-05-01T23:20:40.112Z,100236.74
2023-05-01T23:25:49.070Z,100232.67
2023-05-01T23:31:00.185Z,100228.96
2023-05-01T23:36:03.358Z,100222.83
2023-05-01T23:41:07.363Z,100217.96
2023-05-01T23:46:10.512Z,100217.77
2023-05-01T23:51:13.801Z,100212.52
2023-05-01T23:56:17.008Z,100207.10
